Terminal Aerodrome Forecast
Issued by NWS

Home | Current Version | Previous Version | Text Only | Print | Product List | Glossary On
Versions: 1 2 3 4 5 6 7 8 9 10 11 12 13 14 15 16 17 18 19 20 21
000
FTUS41 KOKX 302038 AAB
TAFHPN
TAF AMD
KHPN 302038Z 3021/3118 19010KT P6SM VCTS BKN020 BKN035CB
      TEMPO 3021/3022 1/2SM +TSRA BKN009 OVC030CB
     FM302200 23010G18KT P6SM -SHRA SCT030 BKN070
     FM310100 24008KT P6SM SCT025 BKN100
     FM310600 30008KT P6SM FEW250
     FM311600 30010KT P6SM SCT060
      AMD NOT SKED=

USA.gov is the U.S. government's official web portal to all federal, state and local government web resources and services.